sensor_id;sensor_type;location;lat;lon;timestamp;pressure;altitude;pressure_sealevel;temperature;humidity
67434;BME280;54305;47.950;6.572;2023-07-22T00:01:03;94335.66;;;13.04;100.00
67434;BME280;54305;47.950;6.572;2023-07-22T00:03:29;94344.13;;;13.06;100.00
67434;BME280;54305;47.950;6.572;2023-07-22T00:06:04;94342.84;;;13.02;100.00
67434;BME280;54305;47.950;6.572;2023-07-22T00:08:30;94340.50;;;13.07;100.00
67434;BME280;54305;47.950;6.572;2023-07-22T00:10:56;94339.88;;;13.05;100.00
67434;BME280;54305;47.950;6.572;2023-07-22T00:13:21;94336.44;;;13.04;100.00
67434;BME280;54305;47.950;6.572;2023-07-22T00:15:46;94331.13;;;12.98;100.00
67434;BME280;54305;47.950;6.572;2023-07-22T00:18:11;94336.81;;;13.01;100.00
67434;BME280;54305;47.950;6.572;2023-07-22T00:20:37;94340.44;;;12.92;100.00
67434;BME280;54305;47.950;6.572;2023-07-22T00:23:02;94337.66;;;12.94;100.00
67434;BME280;54305;47.950;6.572;2023-07-22T00:25:27;94333.06;;;12.96;100.00
67434;BME280;54305;47.950;6.572;2023-07-22T00:27:52;94332.09;;;12.97;100.00
67434;BME280;54305;47.950;6.572;2023-07-22T00:30:18;94333.75;;;12.98;100.00
67434;BME280;54305;47.950;6.572;2023-07-22T00:32:43;94329.50;;;12.97;100.00
67434;BME280;54305;47.950;6.572;2023-07-22T00:35:08;94329.50;;;12.97;100.00
67434;BME280;54305;47.950;6.572;2023-07-22T00:37:35;94327.91;;;12.88;100.00
67434;BME280;54305;47.950;6.572;2023-07-22T00:40:01;94325.97;;;12.82;100.00
67434;BME280;54305;47.950;6.572;2023-07-22T00:42:26;94329.88;;;12.86;100.00
67434;BME280;54305;47.950;6.572;2023-07-22T00:44:51;94325.66;;;12.85;100.00
67434;BME280;54305;47.950;6.572;2023-07-22T00:47:17;94327.38;;;12.92;100.00
67434;BME280;54305;47.950;6.572;2023-07-22T00:49:42;94322.91;;;13.01;100.00
67434;BME280;54305;47.950;6.572;2023-07-22T00:52:08;94323.59;;;12.95;100.00
67434;BME280;54305;47.950;6.572;2023-07-22T00:54:33;94309.97;;;13.07;100.00
67434;BME280;54305;47.950;6.572;2023-07-22T00:56:58;94319.78;;;13.05;100.00
67434;BME280;54305;47.950;6.572;2023-07-22T00:59:24;94318.81;;;13.06;100.00
67434;BME280;54305;47.950;6.572;2023-07-22T01:01:49;94327.44;;;13.07;100.00
67434;BME280;54305;47.950;6.572;2023-07-22T01:04:15;94318.63;;;13.08;100.00
67434;BME280;54305;47.950;6.572;2023-07-22T01:06:42;94324.50;;;13.10;100.00
67434;BME280;54305;47.950;6.572;2023-07-22T01:09:07;94313.13;;;13.03;100.00
67434;BME280;54305;47.950;6.572;2023-07-22T01:11:34;94321.59;;;13.05;100.00
67434;BME280;54305;47.950;6.572;2023-07-22T01:13:59;94315.03;;;13.09;100.00
67434;BME280;54305;47.950;6.572;2023-07-22T01:16:27;94314.84;;;13.10;100.00
67434;BME280;54305;47.950;6.572;2023-07-22T01:18:53;94315.53;;;13.27;100.00
67434;BME280;54305;47.950;6.572;2023-07-22T01:21:19;94313.53;;;13.29;100.00
67434;BME280;54305;47.950;6.572;2023-07-22T01:23:45;94314.53;;;13.28;100.00
67434;BME280;54305;47.950;6.572;2023-07-22T01:26:11;94314.53;;;13.28;100.00
67434;BME280;54305;47.950;6.572;2023-07-22T01:28:37;94312.25;;;13.25;100.00
67434;BME280;54305;47.950;6.572;2023-07-22T01:31:02;94310.19;;;13.20;100.00
67434;BME280;54305;47.950;6.572;2023-07-22T01:33:28;94300.91;;;13.18;100.00
67434;BME280;54305;47.950;6.572;2023-07-22T01:35:53;94309.47;;;13.26;100.00
67434;BME280;54305;47.950;6.572;2023-07-22T01:38:19;94302.06;;;13.30;100.00
67434;BME280;54305;47.950;6.572;2023-07-22T01:40:44;94303.78;;;13.23;100.00
67434;BME280;54305;47.950;6.572;2023-07-22T01:43:09;94296.78;;;13.38;100.00
67434;BME280;54305;47.950;6.572;2023-07-22T01:45:35;94296.66;;;13.31;100.00
67434;BME280;54305;47.950;6.572;2023-07-22T01:48:00;94292.59;;;13.29;100.00
67434;BME280;54305;47.950;6.572;2023-07-22T01:50:25;94284.31;;;13.40;100.00
67434;BME280;54305;47.950;6.572;2023-07-22T01:52:51;94294.09;;;13.46;100.00
67434;BME280;54305;47.950;6.572;2023-07-22T01:55:17;94295.16;;;13.51;100.00
67434;BME280;54305;47.950;6.572;2023-07-22T01:57:43;94290.09;;;13.50;100.00
67434;BME280;54305;47.950;6.572;2023-07-22T02:00:08;94285.22;;;13.61;100.00
67434;BME280;54305;47.950;6.572;2023-07-22T02:02:35;94290.63;;;13.60;100.00
67434;BME280;54305;47.950;6.572;2023-07-22T02:05:01;94288.66;;;13.62;100.00
67434;BME280;54305;47.950;6.572;2023-07-22T02:07:26;94285.78;;;13.57;100.00
67434;BME280;54305;47.950;6.572;2023-07-22T02:09:53;94294.44;;;13.43;100.00
67434;BME280;54305;47.950;6.572;2023-07-22T02:12:19;94293.81;;;13.41;100.00
67434;BME280;54305;47.950;6.572;2023-07-22T02:14:44;94290.25;;;13.34;100.00
67434;BME280;54305;47.950;6.572;2023-07-22T02:17:09;94294.09;;;13.46;100.00
67434;BME280;54305;47.950;6.572;2023-07-22T02:19:35;94293.88;;;13.33;100.00
67434;BME280;54305;47.950;6.572;2023-07-22T02:22:02;94289.81;;;13.30;100.00
67434;BME280;54305;47.950;6.572;2023-07-22T02:24:27;94294.22;;;13.30;100.00
67434;BME280;54305;47.950;6.572;2023-07-22T02:26:53;94288.09;;;13.23;100.00
67434;BME280;54305;47.950;6.572;2023-07-22T02:29:18;94293.31;;;13.23;100.00
67434;BME280;54305;47.950;6.572;2023-07-22T02:31:44;94285.19;;;13.18;100.00
67434;BME280;54305;47.950;6.572;2023-07-22T02:34:11;94288.72;;;13.10;100.00
67434;BME280;54305;47.950;6.572;2023-07-22T02:36:36;94286.72;;;13.12;100.00
67434;BME280;54305;47.950;6.572;2023-07-22T02:39:02;94288.72;;;13.10;100.00
67434;BME280;54305;47.950;6.572;2023-07-22T02:41:28;94288.25;;;13.21;100.00
67434;BME280;54305;47.950;6.572;2023-07-22T02:43:53;94292.78;;;13.13;100.00
67434;BME280;54305;47.950;6.572;2023-07-22T02:46:18;94292.41;;;13.16;100.00
67434;BME280;54305;47.950;6.572;2023-07-22T02:48:43;94283.47;;;13.10;100.00
67434;BME280;54305;47.950;6.572;2023-07-22T02:51:09;94291.59;;;13.15;100.00
67434;BME280;54305;47.950;6.572;2023-07-22T02:53:36;94289.97;;;13.14;100.00
67434;BME280;54305;47.950;6.572;2023-07-22T02:56:02;94287.81;;;13.18;100.00
67434;BME280;54305;47.950;6.572;2023-07-22T02:58:27;94285.03;;;13.19;100.00
67434;BME280;54305;47.950;6.572;2023-07-22T03:00:52;94292.94;;;13.26;100.00
67434;BME280;54305;47.950;6.572;2023-07-22T03:03:18;94282.88;;;13.23;100.00
67434;BME280;54305;47.950;6.572;2023-07-22T03:05:44;94284.47;;;13.24;100.00
67434;BME280;54305;47.950;6.572;2023-07-22T03:08:09;94279.31;;;13.16;100.00
67434;BME280;54305;47.950;6.572;2023-07-22T03:10:35;94286.75;;;13.27;100.00
67434;BME280;54305;47.950;6.572;2023-07-22T03:13:00;94288.72;;;13.25;100.00
67434;BME280;54305;47.950;6.572;2023-07-22T03:15:27;94282.41;;;13.19;100.00
67434;BME280;54305;47.950;6.572;2023-07-22T03:17:53;94282.50;;;13.26;100.00
67434;BME280;54305;47.950;6.572;2023-07-22T03:20:18;94282.50;;;13.26;100.00
67434;BME280;54305;47.950;6.572;2023-07-22T03:22:44;94292.59;;;13.29;100.00
67434;BME280;54305;47.950;6.572;2023-07-22T03:25:10;94285.38;;;13.31;100.00
67434;BME280;54305;47.950;6.572;2023-07-22T03:27:36;94296.22;;;13.28;100.00
67434;BME280;54305;47.950;6.572;2023-07-22T03:30:02;94292.41;;;13.16;100.00
67434;BME280;54305;47.950;6.572;2023-07-22T03:32:27;94292.06;;;13.19;100.00
67434;BME280;54305;47.950;6.572;2023-07-22T03:34:52;94292.13;;;13.11;100.00
67434;BME280;54305;47.950;6.572;2023-07-22T03:37:18;94288.31;;;12.99;100.00
67434;BME280;54305;47.950;6.572;2023-07-22T03:39:45;94282.31;;;13.13;100.00
67434;BME280;54305;47.950;6.572;2023-07-22T03:42:10;94284.81;;;13.06;100.00
67434;BME280;54305;47.950;6.572;2023-07-22T03:44:35;94287.88;;;13.10;100.00
67434;BME280;54305;47.950;6.572;2023-07-22T03:47:01;94290.31;;;13.11;100.00
67434;BME280;54305;47.950;6.572;2023-07-22T03:49:26;94291.84;;;13.06;100.00
67434;BME280;54305;47.950;6.572;2023-07-22T03:51:51;94293.81;;;13.04;100.00
67434;BME280;54305;47.950;6.572;2023-07-22T03:54:16;94283.25;;;12.97;100.00
67434;BME280;54305;47.950;6.572;2023-07-22T03:56:42;94287.31;;;13.00;100.00
67434;BME280;54305;47.950;6.572;2023-07-22T03:59:07;94295.28;;;12.84;100.00
67434;BME280;54305;47.950;6.572;2023-07-22T04:01:32;94291.72;;;12.77;100.00
67434;BME280;54305;47.950;6.572;2023-07-22T04:03:57;94298.88;;;12.83;100.00
67434;BME280;54305;47.950;6.572;2023-07-22T04:06:23;94304.72;;;12.85;100.00
67434;BME280;54305;47.950;6.572;2023-07-22T04:08:48;94297.31;;;12.74;100.00
67434;BME280;54305;47.950;6.572;2023-07-22T04:11:14;94299.28;;;12.72;100.00
67434;BME280;54305;47.950;6.572;2023-07-22T04:13:39;94299.63;;;12.69;100.00
67434;BME280;54305;47.950;6.572;2023-07-22T04:16:04;94303.22;;;12.68;100.00
67434;BME280;54305;47.950;6.572;2023-07-22T04:18:30;94308.09;;;12.71;100.00
67434;BME280;54305;47.950;6.572;2023-07-22T04:20:59;94308.81;;;12.65;100.00
67434;BME280;54305;47.950;6.572;2023-07-22T04:23:24;94309.50;;;12.59;100.00
67434;BME280;54305;47.950;6.572;2023-07-22T04:25:50;94304.88;;;12.69;100.00
67434;BME280;54305;47.950;6.572;2023-07-22T04:28:16;94308.84;;;12.79;100.00
67434;BME280;54305;47.950;6.572;2023-07-22T04:30:41;94307.88;;;12.80;100.00
67434;BME280;54305;47.950;6.572;2023-07-22T04:33:06;94311.13;;;12.82;100.00
67434;BME280;54305;47.950;6.572;2023-07-22T04:35:36;94309.63;;;12.88;100.00
67434;BME280;54305;47.950;6.572;2023-07-22T04:38:02;94308.91;;;12.94;100.00
67434;BME280;54305;47.950;6.572;2023-07-22T04:40:28;94316.69;;;13.02;100.00
67434;BME280;54305;47.950;6.572;2023-07-22T04:42:55;94308.34;;;13.06;100.00
67434;BME280;54305;47.950;6.572;2023-07-22T04:45:20;94316.22;;;13.21;100.00
67434;BME280;54305;47.950;6.572;2023-07-22T04:47:46;94312.63;;;13.22;100.00
67434;BME280;54305;47.950;6.572;2023-07-22T04:50:13;94316.75;;;13.31;100.00
67434;BME280;54305;47.950;6.572;2023-07-22T04:52:39;94319.38;;;13.31;100.00
67434;BME280;54305;47.950;6.572;2023-07-22T04:55:04;94318.88;;;13.35;100.00
67434;BME280;54305;47.950;6.572;2023-07-22T04:57:33;94324.22;;;13.42;100.00
67434;BME280;54305;47.950;6.572;2023-07-22T04:59:59;94324.53;;;13.39;100.00
67434;BME280;54305;47.950;6.572;2023-07-22T05:02:24;94325.53;;;13.38;100.00
67434;BME280;54305;47.950;6.572;2023-07-22T05:04:49;94326.28;;;13.46;100.00
67434;BME280;54305;47.950;6.572;2023-07-22T05:07:14;94330.34;;;13.49;100.00
67434;BME280;54305;47.950;6.572;2023-07-22T05:09:40;94325.66;;;13.59;100.00
67434;BME280;54305;47.950;6.572;2023-07-22T05:12:05;94332.22;;;13.55;100.00
67434;BME280;54305;47.950;6.572;2023-07-22T05:14:30;94333.59;;;13.65;100.00
67434;BME280;54305;47.950;6.572;2023-07-22T05:16:56;94333.97;;;13.77;100.00
67434;BME280;54305;47.950;6.572;2023-07-22T05:19:21;94344.53;;;13.83;100.00
67434;BME280;54305;47.950;6.572;2023-07-22T05:21:46;94338.56;;;13.89;100.00
67434;BME280;54305;47.950;6.572;2023-07-22T05:24:11;94336.41;;;14.07;100.00
67434;BME280;54305;47.950;6.572;2023-07-22T05:26:37;94332.69;;;14.31;100.00
67434;BME280;54305;47.950;6.572;2023-07-22T05:29:02;94331.75;;;14.53;100.00
67434;BME280;54305;47.950;6.572;2023-07-22T05:31:28;94341.13;;;14.62;100.00
67434;BME280;54305;47.950;6.572;2023-07-22T05:33:53;94348.06;;;14.69;100.00
67434;BME280;54305;47.950;6.572;2023-07-22T05:36:18;94344.38;;;14.64;100.00
67434;BME280;54305;47.950;6.572;2023-07-22T05:38:43;94342.75;;;14.63;100.00
67434;BME280;54305;47.950;6.572;2023-07-22T05:41:09;94355.72;;;14.71;100.00
67434;BME280;54305;47.950;6.572;2023-07-22T05:43:34;94349.34;;;14.94;100.00
67434;BME280;54305;47.950;6.572;2023-07-22T05:45:59;94347.00;;;15.27;100.00
67434;BME280;54305;47.950;6.572;2023-07-22T05:48:24;94352.50;;;15.53;100.00
67434;BME280;54305;47.950;6.572;2023-07-22T05:50:50;94350.16;;;15.64;100.00
67434;BME280;54305;47.950;6.572;2023-07-22T05:53:15;94354.63;;;15.64;100.00
67434;BME280;54305;47.950;6.572;2023-07-22T05:55:40;94356.53;;;15.49;100.00
67434;BME280;54305;47.950;6.572;2023-07-22T05:58:06;94352.06;;;15.49;100.00
67434;BME280;54305;47.950;6.572;2023-07-22T06:00:32;94352.88;;;15.29;100.00
67434;BME280;54305;47.950;6.572;2023-07-22T06:02:57;94355.31;;;15.30;100.00
67434;BME280;54305;47.950;6.572;2023-07-22T06:05:23;94357.72;;;15.46;100.00
67434;BME280;54305;47.950;6.572;2023-07-22T06:07:48;94354.88;;;15.48;100.00
67434;BME280;54305;47.950;6.572;2023-07-22T06:10:13;94357.00;;;15.59;100.00
67434;BME280;54305;47.950;6.572;2023-07-22T06:12:39;94349.38;;;15.64;100.00
67434;BME280;54305;47.950;6.572;2023-07-22T06:15:06;94352.00;;;15.98;100.00
67434;BME280;54305;47.950;6.572;2023-07-22T06:17:31;94351.72;;;16.20;100.00
67434;BME280;54305;47.950;6.572;2023-07-22T06:19:57;94351.84;;;16.40;100.00
67434;BME280;54305;47.950;6.572;2023-07-22T06:22:22;94349.06;;;16.48;100.00
67434;BME280;54305;47.950;6.572;2023-07-22T06:24:47;94358.66;;;16.68;100.00
67434;BME280;54305;47.950;6.572;2023-07-22T06:27:12;94361.31;;;16.75;100.00
67434;BME280;54305;47.950;6.572;2023-07-22T06:29:38;94356.19;;;16.60;100.00
67434;BME280;54305;47.950;6.572;2023-07-22T06:32:03;94354.63;;;16.32;100.00
67434;BME280;54305;47.950;6.572;2023-07-22T06:34:28;94363.03;;;16.21;100.00
67434;BME280;54305;47.950;6.572;2023-07-22T06:36:54;94365.38;;;16.03;100.00
67434;BME280;54305;47.950;6.572;2023-07-22T06:39:19;94364.44;;;16.17;100.00
67434;BME280;54305;47.950;6.572;2023-07-22T06:41:44;94365.16;;;16.38;100.00
67434;BME280;54305;47.950;6.572;2023-07-22T06:44:09;94362.81;;;16.50;100.00
67434;BME280;54305;47.950;6.572;2023-07-22T06:46:35;94368.91;;;16.57;100.00
67434;BME280;54305;47.950;6.572;2023-07-22T06:49:00;94361.66;;;16.65;100.00
67434;BME280;54305;47.950;6.572;2023-07-22T06:51:25;94370.22;;;16.87;100.00
67434;BME280;54305;47.950;6.572;2023-07-22T06:53:51;94373.72;;;17.07;100.00
67434;BME280;54305;47.950;6.572;2023-07-22T06:56:16;94372.72;;;17.14;100.00
67434;BME280;54305;47.950;6.572;2023-07-22T06:58:41;94373.13;;;17.05;100.00
67434;BME280;54305;47.950;6.572;2023-07-22T07:01:06;94370.63;;;16.84;100.00
67434;BME280;54305;47.950;6.572;2023-07-22T07:03:31;94375.91;;;16.84;100.00
67434;BME280;54305;47.950;6.572;2023-07-22T07:05:57;94381.19;;;16.97;100.00
67434;BME280;54305;47.950;6.572;2023-07-22T07:08:22;94380.84;;;17.26;100.00
67434;BME280;54305;47.950;6.572;2023-07-22T07:10:48;94368.09;;;17.36;100.00
67434;BME280;54305;47.950;6.572;2023-07-22T07:13:13;94379.28;;;17.51;100.00
67434;BME280;54305;47.950;6.572;2023-07-22T07:15:39;94374.84;;;17.58;100.00
67434;BME280;54305;47.950;6.572;2023-07-22T07:18:04;94380.47;;;17.94;100.00
67434;BME280;54305;47.950;6.572;2023-07-22T07:20:30;94381.31;;;17.75;100.00
67434;BME280;54305;47.950;6.572;2023-07-22T07:22:55;94380.91;;;17.52;100.00
67434;BME280;54305;47.950;6.572;2023-07-22T07:25:21;94385.09;;;17.27;100.00
67434;BME280;54305;47.950;6.572;2023-07-22T07:27:46;94388.53;;;17.08;100.00
67434;BME280;54305;47.950;6.572;2023-07-22T07:30:12;94382.06;;;17.30;100.00
67434;BME280;54305;47.950;6.572;2023-07-22T07:32:37;94385.72;;;17.29;100.00
67434;BME280;54305;47.950;6.572;2023-07-22T07:35:02;94391.97;;;17.15;100.00
67434;BME280;54305;47.950;6.572;2023-07-22T07:37:29;94391.84;;;17.49;100.00
67434;BME280;54305;47.950;6.572;2023-07-22T07:39:54;94392.25;;;17.59;100.00
67434;BME280;54305;47.950;6.572;2023-07-22T07:42:24;94381.69;;;17.91;100.00
67434;BME280;54305;47.950;6.572;2023-07-22T07:44:49;94390.19;;;18.26;100.00
67434;BME280;54305;47.950;6.572;2023-07-22T07:47:14;94376.03;;;17.88;100.00
67434;BME280;54305;47.950;6.572;2023-07-22T07:49:40;94390.22;;;17.87;100.00
67434;BME280;54305;47.950;6.572;2023-07-22T07:52:05;94389.00;;;17.63;100.00
67434;BME280;54305;47.950;6.572;2023-07-22T07:54:30;94398.34;;;18.05;100.00
67434;BME280;54305;47.950;6.572;2023-07-22T07:56:56;94392.03;;;17.99;100.00
67434;BME280;54305;47.950;6.572;2023-07-22T07:59:21;94392.22;;;18.24;100.00
67434;BME280;54305;47.950;6.572;2023-07-22T08:01:46;94390.00;;;18.08;100.00
67434;BME280;54305;47.950;6.572;2023-07-22T08:04:12;94396.44;;;18.51;100.00
67434;BME280;54305;47.950;6.572;2023-07-22T08:06:38;94388.91;;;18.48;100.00
67434;BME280;54305;47.950;6.572;2023-07-22T08:09:03;94387.41;;;18.78;100.00
67434;BME280;54305;47.950;6.572;2023-07-22T08:11:30;94390.41;;;18.88;100.00
67434;BME280;54305;47.950;6.572;2023-07-22T08:13:55;94391.47;;;19.18;100.00
67434;BME280;54305;47.950;6.572;2023-07-22T08:16:20;94392.63;;;19.35;100.00
67434;BME280;54305;47.950;6.572;2023-07-22T08:18:46;94386.38;;;19.54;100.00
67434;BME280;54305;47.950;6.572;2023-07-22T08:21:12;94391.19;;;19.88;100.00
67434;BME280;54305;47.950;6.572;2023-07-22T08:23:37;94396.25;;;19.40;100.00
67434;BME280;54305;47.950;6.572;2023-07-22T08:26:02;94392.16;;;19.07;100.00
67434;BME280;54305;47.950;6.572;2023-07-22T08:28:30;94387.13;;;18.92;100.00
67434;BME280;54305;47.950;6.572;2023-07-22T08:30:56;94402.09;;;19.05;100.00
67434;BME280;54305;47.950;6.572;2023-07-22T08:33:21;94398.00;;;19.09;100.00
67434;BME280;54305;47.950;6.572;2023-07-22T08:35:47;94394.66;;;19.33;100.00
67434;BME280;54305;47.950;6.572;2023-07-22T08:38:13;94406.50;;;19.24;100.00
67434;BME280;54305;47.950;6.572;2023-07-22T08:40:39;94401.47;;;18.59;100.00
67434;BME280;54305;47.950;6.572;2023-07-22T08:43:05;94400.59;;;18.84;100.00
67434;BME280;54305;47.950;6.572;2023-07-22T08:45:31;94396.47;;;18.88;96.80
67434;BME280;54305;47.950;6.572;2023-07-22T08:47:58;94409.31;;;19.29;100.00
67434;BME280;54305;47.950;6.572;2023-07-22T08:50:23;94393.81;;;19.39;100.00
67434;BME280;54305;47.950;6.572;2023-07-22T08:52:51;94391.59;;;19.67;99.75
67434;BME280;54305;47.950;6.572;2023-07-22T08:55:16;94402.59;;;19.64;100.00
67434;BME280;54305;47.950;6.572;2023-07-22T08:57:41;94399.75;;;19.90;100.00
67434;BME280;54305;47.950;6.572;2023-07-22T09:00:07;94395.50;;;19.89;98.78
67434;BME280;54305;47.950;6.572;2023-07-22T09:02:34;94397.00;;;20.03;95.00
67434;BME280;54305;47.950;6.572;2023-07-22T09:04:59;94402.72;;;20.00;89.42
67434;BME280;54305;47.950;6.572;2023-07-22T09:07:25;94412.56;;;19.31;93.68
67434;BME280;54305;47.950;6.572;2023-07-22T09:09:51;94405.84;;;19.35;98.48
67434;BME280;54305;47.950;6.572;2023-07-22T09:12:16;94416.16;;;19.36;97.12
67434;BME280;54305;47.950;6.572;2023-07-22T09:14:42;94408.31;;;19.61;99.59
67434;BME280;54305;47.950;6.572;2023-07-22T09:17:08;94401.19;;;19.86;92.48
67434;BME280;54305;47.950;6.572;2023-07-22T09:19:33;94403.19;;;19.66;91.37
67434;BME280;54305;47.950;6.572;2023-07-22T09:21:58;94408.56;;;19.22;88.17
67434;BME280;54305;47.950;6.572;2023-07-22T09:24:24;94411.38;;;19.27;98.64
67434;BME280;54305;47.950;6.572;2023-07-22T09:26:50;94405.50;;;19.56;96.02
67434;BME280;54305;47.950;6.572;2023-07-22T09:29:15;94414.16;;;19.94;97.15
67434;BME280;54305;47.950;6.572;2023-07-22T09:31:50;94404.66;;;20.11;88.88
67434;BME280;54305;47.950;6.572;2023-07-22T09:34:15;94409.00;;;20.48;90.47
67434;BME280;54305;47.950;6.572;2023-07-22T09:39:15;94405.03;;;20.57;88.96
67434;BME280;54305;47.950;6.572;2023-07-22T09:41:41;94403.28;;;21.05;80.48
67434;BME280;54305;47.950;6.572;2023-07-22T09:44:08;94417.94;;;20.29;83.61
67434;BME280;54305;47.950;6.572;2023-07-22T09:46:34;94420.06;;;19.65;85.12
67434;BME280;54305;47.950;6.572;2023-07-22T09:49:02;94408.88;;;19.63;84.34
67434;BME280;54305;47.950;6.572;2023-07-22T09:51:32;94403.09;;;19.48;87.14
67434;BME280;54305;47.950;6.572;2023-07-22T09:54:01;94412.63;;;19.80;85.85
67434;BME280;54305;47.950;6.572;2023-07-22T09:56:26;94412.97;;;19.90;85.95
67434;BME280;54305;47.950;6.572;2023-07-22T09:58:52;94409.75;;;20.73;89.19
67434;BME280;54305;47.950;6.572;2023-07-22T10:01:22;94408.00;;;20.85;83.77
67434;BME280;54305;47.950;6.572;2023-07-22T10:03:49;94407.25;;;19.93;82.75
67434;BME280;54305;47.950;6.572;2023-07-22T10:06:19;94402.13;;;20.23;81.46
67434;BME280;54305;47.950;6.572;2023-07-22T10:08:45;94399.50;;;20.77;86.80
67434;BME280;54305;47.950;6.572;2023-07-22T10:11:13;94419.25;;;20.20;77.27
67434;BME280;54305;47.950;6.572;2023-07-22T10:13:38;94402.69;;;19.51;75.58
67434;BME280;54305;47.950;6.572;2023-07-22T10:16:04;94412.09;;;19.96;76.17
67434;BME280;54305;47.950;6.572;2023-07-22T10:18:30;94408.56;;;20.02;75.96
67434;BME280;54305;47.950;6.572;2023-07-22T10:20:56;94414.09;;;20.00;77.82
67434;BME280;54305;47.950;6.572;2023-07-22T10:23:22;94421.81;;;20.02;80.37
67434;BME280;54305;47.950;6.572;2023-07-22T10:25:50;94420.63;;;19.98;81.52
67434;BME280;54305;47.950;6.572;2023-07-22T10:28:16;94419.72;;;20.35;85.72
67434;BME280;54305;47.950;6.572;2023-07-22T10:30:41;94410.16;;;20.34;77.68
67434;BME280;54305;47.950;6.572;2023-07-22T10:33:08;94409.16;;;20.11;80.60
67434;BME280;54305;47.950;6.572;2023-07-22T10:38:11;94409.00;;;20.48;78.40
67434;BME280;54305;47.950;6.572;2023-07-22T10:40:45;94408.84;;;20.79;70.42
67434;BME280;54305;47.950;6.572;2023-07-22T10:43:11;94399.16;;;21.09;64.54
67434;BME280;54305;47.950;6.572;2023-07-22T10:45:40;94400.63;;;21.05;65.60
67434;BME280;54305;47.950;6.572;2023-07-22T10:48:07;94408.59;;;21.05;70.78
67434;BME280;54305;47.950;6.572;2023-07-22T10:53:04;94394.59;;;21.57;72.60
67434;BME280;54305;47.950;6.572;2023-07-22T10:55:29;94381.69;;;21.49;58.71
67434;BME280;54305;47.950;6.572;2023-07-22T10:57:54;94390.19;;;21.10;62.26
67434;BME280;54305;47.950;6.572;2023-07-22T11:00:21;94389.16;;;21.70;61.76
67434;BME280;54305;47.950;6.572;2023-07-22T11:02:47;94380.91;;;21.60;62.96
67434;BME280;54305;47.950;6.572;2023-07-22T11:05:13;94377.88;;;21.75;57.92
67434;BME280;54305;47.950;6.572;2023-07-22T11:07:44;94371.06;;;21.90;53.46
67434;BME280;54305;47.950;6.572;2023-07-22T11:10:14;94371.22;;;22.30;53.60
67434;BME280;54305;47.950;6.572;2023-07-22T11:12:43;94375.97;;;21.64;52.36
67434;BME280;54305;47.950;6.572;2023-07-22T11:15:12;94362.81;;;22.21;55.02
67434;BME280;54305;47.950;6.572;2023-07-22T11:17:39;94369.69;;;22.68;52.67
67434;BME280;54305;47.950;6.572;2023-07-22T11:20:05;94373.66;;;22.31;52.25
67434;BME280;54305;47.950;6.572;2023-07-22T11:22:30;94365.41;;;21.75;51.64
67434;BME280;54305;47.950;6.572;2023-07-22T11:24:55;94372.72;;;22.37;60.01
67434;BME280;54305;47.950;6.572;2023-07-22T11:27:23;94368.34;;;22.31;51.15
67434;BME280;54305;47.950;6.572;2023-07-22T11:29:48;94372.97;;;21.60;52.59
67434;BME280;54305;47.950;6.572;2023-07-22T11:32:14;94361.97;;;21.98;54.71
67434;BME280;54305;47.950;6.572;2023-07-22T11:34:42;94365.56;;;22.26;50.25
67434;BME280;54305;47.950;6.572;2023-07-22T11:37:11;94356.28;;;22.86;50.47
67434;BME280;54305;47.950;6.572;2023-07-22T11:39:36;94357.44;;;23.30;54.83
67434;BME280;54305;47.950;6.572;2023-07-22T11:42:03;94355.19;;;23.38;53.02
67434;BME280;54305;47.950;6.572;2023-07-22T11:44:29;94357.16;;;23.03;52.29
67434;BME280;54305;47.950;6.572;2023-07-22T11:46:56;94355.84;;;23.45;54.98
67434;BME280;54305;47.950;6.572;2023-07-22T11:49:46;94354.13;;;23.00;49.88
67434;BME280;54305;47.950;6.572;2023-07-22T11:52:09;94347.41;;;23.20;51.06
67434;BME280;54305;47.950;6.572;2023-07-22T11:54:35;94350.44;;;23.12;50.84
67434;BME280;54305;47.950;6.572;2023-07-22T11:57:11;94343.31;;;23.57;52.25
67434;BME280;54305;47.950;6.572;2023-07-22T11:59:43;94345.03;;;22.56;52.32
67434;BME280;54305;47.950;6.572;2023-07-22T12:02:12;94346.41;;;22.24;49.84
67434;BME280;54305;47.950;6.572;2023-07-22T12:04:37;94347.19;;;23.10;49.59
67434;BME280;54305;47.950;6.572;2023-07-22T12:07:03;94341.66;;;23.40;54.15
67434;BME280;54305;47.950;6.572;2023-07-22T12:09:29;94343.41;;;22.95;51.53
67434;BME280;54305;47.950;6.572;2023-07-22T12:11:55;94332.50;;;23.64;57.46
67434;BME280;54305;47.950;6.572;2023-07-22T12:14:20;94333.66;;;24.17;52.04
67434;BME280;54305;47.950;6.572;2023-07-22T12:16:46;94329.69;;;24.74;48.33
67434;BME280;54305;47.950;6.572;2023-07-22T12:19:11;94342.00;;;24.42;47.09
67434;BME280;54305;47.950;6.572;2023-07-22T12:21:36;94336.41;;;24.60;43.19
67434;BME280;54305;47.950;6.572;2023-07-22T12:24:01;94334.16;;;24.14;45.29
67434;BME280;54305;47.950;6.572;2023-07-22T12:26:27;94334.63;;;22.43;49.51
67434;BME280;54305;47.950;6.572;2023-07-22T12:28:53;94342.03;;;22.18;47.07
67434;BME280;54305;47.950;6.572;2023-07-22T12:31:18;94342.38;;;22.33;48.25
67434;BME280;54305;47.950;6.572;2023-07-22T12:33:43;94338.28;;;22.88;46.15
67434;BME280;54305;47.950;6.572;2023-07-22T12:36:08;94330.50;;;23.71;47.08
67434;BME280;54305;47.950;6.572;2023-07-22T12:38:34;94331.88;;;23.73;44.37
67434;BME280;54305;47.950;6.572;2023-07-22T12:41:00;94324.59;;;23.52;44.81
67434;BME280;54305;47.950;6.572;2023-07-22T12:43:25;94325.13;;;24.15;44.22
67434;BME280;54305;47.950;6.572;2023-07-22T12:45:50;94332.78;;;22.95;44.31
67434;BME280;54305;47.950;6.572;2023-07-22T12:48:16;94331.44;;;23.93;47.51
67434;BME280;54305;47.950;6.572;2023-07-22T12:50:42;94327.41;;;23.90;46.37
67434;BME280;54305;47.950;6.572;2023-07-22T12:53:07;94316.72;;;24.23;43.81